Time;durP1;ratioP1;P1;durP2;ratioP2;P2;SDS_P1;SDS_P2;PMS_P1;PMS_P2;Temp;Humidity;BMP_temperature;BMP_pressure;BME280_temperature;BME280_humidity;BME280_pressure;Samples;Min_cycle;Max_cycle;Signal;HPM_P1;HPM_P2
2023/01/27 00:00:59;;;;;;;22.20;15.30;;;4.30;99.90;;;;;;7360076;19;20027;-63
2023/01/27 00:03:25;;;;;;;22.35;14.68;;;4.40;99.90;;;;;;7362212;19;20090;-64
2023/01/27 00:05:52;;;;;;;24.48;17.13;;;4.40;99.90;;;;;;7356180;19;20015;-64
2023/01/27 00:08:19;;;;;;;24.35;15.73;;;4.40;99.90;;;;;;7362358;19;20553;-64
2023/01/27 00:10:45;;;;;;;25.33;17.13;;;4.40;99.90;;;;;;7358856;19;21243;-64
2023/01/27 00:13:25;;;;;;;24.60;16.90;;;4.40;99.90;;;;;;7355936;19;20024;-67
2023/01/27 00:15:52;;;;;;;26.10;17.38;;;4.40;99.90;;;;;;7356726;19;20026;-64
2023/01/27 00:18:18;;;;;;;21.27;15.55;;;4.40;99.90;;;;;;7357219;19;20053;-64
2023/01/27 00:26:18;;;;;;;22.25;17.65;;;4.40;99.90;;;;;;7371134;19;20020;-59
2023/01/27 00:28:46;;;;;;;19.30;15.18;;;4.40;99.90;;;;;;7371770;19;20025;-58
2023/01/27 00:34:00;;;;;;;19.95;14.07;;;4.40;99.90;;;;;;7369395;19;20477;-58
2023/01/27 00:36:28;;;;;;;21.05;15.65;;;4.40;99.90;;;;;;7367681;19;20026;-59
2023/01/27 00:38:55;;;;;;;20.50;14.45;;;4.40;99.90;;;;;;7368610;19;20015;-62
2023/01/27 00:41:22;;;;;;;17.88;13.20;;;4.40;99.90;;;;;;7356190;19;20015;-63
2023/01/27 00:43:50;;;;;;;17.55;13.27;;;4.40;99.90;;;;;;7357005;19;20074;-64
2023/01/27 00:46:18;;;;;;;17.20;13.68;;;4.40;99.90;;;;;;7364418;19;20026;-59
2023/01/27 00:48:45;;;;;;;15.48;11.73;;;4.40;99.90;;;;;;7372191;19;20030;-58
2023/01/27 00:51:12;;;;;;;19.42;14.30;;;4.40;99.90;;;;;;7369361;19;20033;-59
2023/01/27 00:53:39;;;;;;;19.17;14.00;;;4.40;99.90;;;;;;7371437;19;20497;-59
2023/01/27 00:56:06;;;;;;;16.52;12.48;;;4.40;99.90;;;;;;7371919;19;20022;-59
2023/01/27 00:58:33;;;;;;;16.85;11.57;;;4.40;99.90;;;;;;7368788;19;20573;-59
2023/01/27 01:01:02;;;;;;;15.10;11.85;;;4.40;99.90;;;;;;7369690;19;20026;-59
2023/01/27 01:03:30;;;;;;;16.30;12.07;;;4.40;99.90;;;;;;7358407;19;20793;-64
2023/01/27 01:06:01;;;;;;;14.60;11.43;;;4.40;99.90;;;;;;7363853;19;20872;-63
2023/01/27 01:08:30;;;;;;;16.10;12.80;;;4.40;99.90;;;;;;7367284;19;20494;-58
2023/01/27 01:10:56;;;;;;;16.88;11.45;;;4.40;99.90;;;;;;7363352;19;20298;-64
2023/01/27 01:13:26;;;;;;;14.20;11.30;;;4.40;99.90;;;;;;7366162;19;20026;-64
2023/01/27 01:15:53;;;;;;;14.23;10.52;;;4.40;99.90;;;;;;7365697;19;20021;-64
2023/01/27 01:18:19;;;;;;;15.65;11.20;;;4.30;99.90;;;;;;7363687;19;20461;-64
2023/01/27 01:20:46;;;;;;;15.70;10.52;;;4.40;99.90;;;;;;7365395;19;20034;-63
2023/01/27 01:23:14;;;;;;;12.07;9.40;;;4.40;99.90;;;;;;7360226;19;20018;-64
2023/01/27 01:25:42;;;;;;;14.43;10.85;;;4.40;99.90;;;;;;7371565;19;20018;-59
2023/01/27 01:28:09;;;;;;;14.02;8.60;;;4.40;99.90;;;;;;7374947;19;20464;-59
2023/01/27 01:30:37;;;;;;;12.02;9.13;;;4.40;99.90;;;;;;7375796;19;20023;-59
2023/01/27 01:33:05;;;;;;;11.00;7.82;;;4.40;99.90;;;;;;7370429;19;20547;-58
2023/01/27 01:35:37;;;;;;;9.27;7.32;;;4.40;99.90;;;;;;7373542;19;20015;-59
2023/01/27 01:38:05;;;;;;;9.50;6.40;;;4.40;99.90;;;;;;7372767;19;20504;-64
2023/01/27 01:40:32;;;;;;;11.85;8.15;;;4.40;99.90;;;;;;7363464;19;20019;-59
2023/01/27 01:43:01;;;;;;;10.10;7.63;;;4.40;99.90;;;;;;7373969;19;20071;-59
2023/01/27 01:45:43;;;;;;;12.88;8.40;;;4.40;99.90;;;;;;7373188;19;20429;-59
2023/01/27 01:48:15;;;;;;;;;;;4.50;99.90;;;;;;7373775;19;20792;-58
2023/01/27 01:50:47;;;;;;;9.82;6.15;;;4.50;99.90;;;;;;7374786;19;20404;-59
2023/01/27 01:53:13;;;;;;;9.90;7.43;;;4.50;99.90;;;;;;7374141;19;20517;-58
2023/01/27 01:55:40;;;;;;;9.32;6.60;;;4.50;99.90;;;;;;7369781;19;20045;-64
2023/01/27 01:58:10;;;;;;;9.52;8.20;;;4.50;99.90;;;;;;7362938;19;20022;-64
2023/01/27 02:00:37;;;;;;;10.13;6.88;;;4.50;99.90;;;;;;7369033;19;20007;-62
2023/01/27 02:03:03;;;;;;;11.63;7.75;;;4.50;99.90;;;;;;7366263;19;20019;-63
2023/01/27 02:05:35;;;;;;;10.18;6.88;;;4.40;99.90;;;;;;7378359;19;20078;-59
2023/01/27 02:08:25;;;;;;;10.00;7.65;;;4.40;99.90;;;;;;7370849;19;20082;-64
2023/01/27 02:10:53;;;;;;;13.40;8.38;;;4.50;99.90;;;;;;7373359;19;20126;-64
2023/01/27 02:13:20;;;;;;;12.00;8.40;;;4.40;99.90;;;;;;7376252;19;20389;-58
2023/01/27 02:15:46;;;;;;;12.98;8.02;;;4.40;99.90;;;;;;7381709;19;20513;-59
2023/01/27 02:18:13;;;;;;;12.52;10.20;;;4.50;99.90;;;;;;7374341;19;20494;-63
2023/01/27 02:20:44;;;;;;;12.93;9.82;;;4.40;99.90;;;;;;7370869;19;20019;-59
2023/01/27 02:23:39;;;;;;;11.35;9.18;;;4.40;99.90;;;;;;7379351;19;20021;-59
2023/01/27 02:26:20;;;;;;;12.85;8.90;;;4.40;99.90;;;;;;7384266;19;20078;-58
2023/01/27 02:28:57;;;;;;;10.95;8.40;;;4.40;99.90;;;;;;7380956;19;20023;-59
2023/01/27 02:31:24;;;;;;;11.77;8.20;;;4.40;99.90;;;;;;7381947;19;20548;-58
2023/01/27 02:33:54;;;;;;;11.32;8.27;;;4.40;99.90;;;;;;7383476;19;20032;-64
2023/01/27 02:36:21;;;;;;;9.27;7.53;;;4.40;99.90;;;;;;7369263;19;20017;-64
2023/01/27 02:38:54;;;;;;;9.10;7.20;;;4.40;99.90;;;;;;7373189;19;20543;-64
2023/01/27 02:41:40;;;;;;;10.40;7.28;;;4.40;99.90;;;;;;7366905;19;20051;-62
2023/01/27 02:44:07;;;;;;;11.35;7.03;;;4.40;99.90;;;;;;7372821;19;20018;-64
2023/01/27 02:46:33;;;;;;;7.93;6.32;;;4.40;99.90;;;;;;7368830;19;20355;-59
2023/01/27 02:48:59;;;;;;;11.88;6.03;;;4.40;99.90;;;;;;7382007;19;20498;-59
2023/01/27 02:51:26;;;;;;;9.07;5.82;;;4.40;99.90;;;;;;7381970;19;20042;-59
2023/01/27 02:53:53;;;;;;;10.32;5.60;;;4.50;99.90;;;;;;7382838;19;20023;-59
2023/01/27 02:56:20;;;;;;;8.05;6.07;;;4.50;99.90;;;;;;7379904;19;20018;-59
2023/01/27 02:58:48;;;;;;;7.85;4.72;;;4.50;99.90;;;;;;7380966;19;20023;-58
2023/01/27 03:01:17;;;;;;;7.03;4.57;;;4.50;99.90;;;;;;7381047;19;20026;-59
2023/01/27 03:03:45;;;;;;;7.75;4.50;;;4.50;99.90;;;;;;7373558;19;20032;-64
2023/01/27 03:06:13;;;;;;;6.85;4.45;;;4.50;99.90;;;;;;7371419;19;20105;-64
2023/01/27 03:08:40;;;;;;;5.00;3.95;;;4.50;99.90;;;;;;7367481;19;20564;-64
2023/01/27 03:11:07;;;;;;;7.70;4.10;;;4.50;99.90;;;;;;7370866;19;20486;-59
2023/01/27 03:13:35;;;;;;;5.85;4.30;;;4.50;99.90;;;;;;7379035;19;20045;-58
2023/01/27 03:18:49;;;;;;;3.22;2.92;;;4.60;99.90;;;;;;7364938;19;20022;-64
2023/01/27 03:21:16;;;;;;;5.25;3.08;;;4.60;99.90;;;;;;7369556;19;20023;-64
2023/01/27 03:23:44;;;;;;;6.10;3.20;;;4.60;99.90;;;;;;7372731;19;20024;-59
2023/01/27 03:26:13;;;;;;;3.72;2.72;;;4.60;99.90;;;;;;7375684;19;20010;-65
2023/01/27 03:29:53;;;;;;;4.55;2.75;;;4.60;99.90;;;;;;7364962;19;20083;-64
2023/01/27 03:31:29;;;;;;;6.50;2.92;;;4.70;99.90;;;;;;7378108;19;20054;-58
2023/01/27 03:34:00;;;;;;;4.57;3.25;;;4.70;99.90;;;;;;7378585;19;20496;-59
2023/01/27 03:47:33;;;;;;;7.13;3.70;;;4.60;99.90;;;;;;7370441;19;20024;-58
2023/01/27 03:49:59;;;;;;;3.80;3.00;;;4.60;99.90;;;;;;7374345;19;20062;-64
2023/01/27 03:52:26;;;;;;;3.53;2.97;;;4.60;99.90;;;;;;7363622;19;20018;-64
2023/01/27 03:54:52;;;;;;;4.45;2.92;;;4.60;99.90;;;;;;7373552;19;20400;-65
2023/01/27 03:57:18;;;;;;;4.20;2.90;;;4.60;99.90;;;;;;7372500;19;20018;-59
2023/01/27 03:59:44;;;;;;;4.28;3.22;;;4.60;99.90;;;;;;7378731;19;20042;-59
2023/01/27 04:07:40;;;;;;;3.92;2.90;;;4.60;99.90;;;;;;7378985;19;20348;-59
2023/01/27 04:10:06;;;;;;;6.38;3.10;;;4.60;99.90;;;;;;7378983;19;20019;-59
2023/01/27 04:12:33;;;;;;;5.18;3.25;;;4.60;99.90;;;;;;7376905;19;20011;-63
2023/01/27 04:14:59;;;;;;;3.90;2.85;;;4.60;99.90;;;;;;7372842;19;20067;-64
2023/01/27 04:17:26;;;;;;;4.00;2.78;;;4.50;99.90;;;;;;7366787;19;20782;-64
2023/01/27 04:19:52;;;;;;;5.00;2.58;;;4.50;99.90;;;;;;7367825;19;20022;-64
2023/01/27 04:22:18;;;;;;;4.72;3.03;;;4.60;99.90;;;;;;7368041;19;20111;-64
2023/01/27 04:24:45;;;;;;;5.28;3.50;;;4.50;99.90;;;;;;7364989;19;20494;-64
2023/01/27 04:27:14;;;;;;;4.93;3.38;;;4.50;99.90;;;;;;7366514;19;20461;-64
2023/01/27 04:29:41;;;;;;;5.03;3.08;;;4.50;99.90;;;;;;7378294;19;20011;-59
2023/01/27 04:32:10;;;;;;;3.92;2.88;;;4.50;99.90;;;;;;7379519;19;20019;-59
2023/01/27 04:34:36;;;;;;;5.38;3.30;;;4.50;99.90;;;;;;7375681;19;20115;-59
2023/01/27 04:37:05;;;;;;;5.88;2.97;;;4.50;99.90;;;;;;7377804;19;20022;-59
2023/01/27 04:39:32;;;;;;;5.30;2.65;;;4.50;99.90;;;;;;7377400;19;20429;-59
2023/01/27 04:41:58;;;;;;;6.38;3.10;;;4.50;99.90;;;;;;7384479;19;20057;-58
2023/01/27 04:44:24;;;;;;;4.05;2.58;;;4.50;99.90;;;;;;7388028;19;20019;-58
2023/01/27 04:46:53;;;;;;;4.32;2.05;;;4.50;99.90;;;;;;7382834;19;20052;-59
2023/01/27 04:49:19;;;;;;;4.95;2.75;;;4.40;99.90;;;;;;7386538;19;20018;-59
2023/01/27 04:51:46;;;;;;;4.22;2.80;;;4.40;99.90;;;;;;7387721;19;20711;-59
2023/01/27 04:54:12;;;;;;;5.57;3.00;;;4.40;99.90;;;;;;7383700;19;20025;-64
2023/01/27 04:56:41;;;;;;;4.63;2.90;;;4.40;99.90;;;;;;7370300;19;20027;-64
2023/01/27 04:59:11;;;;;;;4.40;2.85;;;4.40;99.90;;;;;;7378778;19;20032;-64
2023/01/27 05:01:37;;;;;;;5.28;2.72;;;4.30;99.90;;;;;;7378294;19;20021;-64
2023/01/27 05:04:04;;;;;;;5.13;2.70;;;4.30;99.90;;;;;;7382489;19;20022;-63
2023/01/27 05:06:30;;;;;;;4.47;2.78;;;4.30;99.90;;;;;;7372355;19;20022;-64
2023/01/27 05:08:57;;;;;;;5.38;2.33;;;4.30;99.90;;;;;;7375729;19;20477;-59
2023/01/27 05:11:23;;;;;;;4.70;2.40;;;4.30;99.90;;;;;;7386927;19;20025;-58
2023/01/27 05:13:49;;;;;;;5.78;2.30;;;4.30;99.90;;;;;;7380800;19;20498;-64
2023/01/27 05:16:17;;;;;;;5.60;2.60;;;4.30;99.90;;;;;;7377816;19;20474;-64
2023/01/27 05:18:46;;;;;;;4.88;2.42;;;4.30;99.90;;;;;;7370827;19;20030;-64
2023/01/27 05:21:15;;;;;;;4.68;2.35;;;4.30;99.90;;;;;;7374626;19;20026;-64
2023/01/27 05:23:41;;;;;;;5.53;2.58;;;4.30;99.90;;;;;;7375439;19;20023;-59
2023/01/27 05:26:14;;;;;;;4.63;2.63;;;4.30;99.90;;;;;;7385254;19;20014;-60
2023/01/27 05:28:44;;;;;;;5.82;2.70;;;4.30;99.90;;;;;;7364699;19;20683;-63
2023/01/27 05:31:17;;;;;;;4.85;2.60;;;4.30;99.90;;;;;;7375988;19;20029;-59
2023/01/27 05:33:45;;;;;;;5.53;2.75;;;4.20;99.90;;;;;;7376280;19;20106;-59
2023/01/27 05:36:13;;;;;;;6.20;2.55;;;4.20;99.90;;;;;;7380487;19;20361;-59
2023/01/27 05:38:40;;;;;;;7.00;2.92;;;4.20;99.90;;;;;;7375780;19;20014;-59
2023/01/27 05:41:08;;;;;;;7.35;3.20;;;4.20;99.90;;;;;;7377349;19;20015;-59
2023/01/27 05:43:36;;;;;;;6.55;3.15;;;4.20;99.90;;;;;;7377019;19;20019;-59
2023/01/27 05:46:04;;;;;;;6.20;2.75;;;4.20;99.90;;;;;;7379201;19;20078;-59
2023/01/27 05:48:31;;;;;;;4.55;2.83;;;4.20;99.90;;;;;;7377664;19;20037;-59
2023/01/27 05:50:58;;;;;;;5.28;3.13;;;4.20;99.90;;;;;;7374582;19;20026;-59
2023/01/27 05:53:25;;;;;;;5.72;2.63;;;4.20;99.90;;;;;;7381015;19;20517;-59
2023/01/27 05:55:51;;;;;;;5.05;2.72;;;4.20;99.90;;;;;;7378505;19;20138;-59
2023/01/27 05:58:19;;;;;;;4.93;2.47;;;4.20;99.90;;;;;;7381802;19;20480;-59
2023/01/27 06:00:45;;;;;;;4.57;2.78;;;4.20;99.90;;;;;;7375951;19;20042;-59
2023/01/27 06:03:12;;;;;;;4.68;2.83;;;4.20;99.90;;;;;;7376209;19;20397;-64
2023/01/27 06:05:38;;;;;;;5.30;3.03;;;4.20;99.90;;;;;;7364714;19;20019;-58
2023/01/27 06:08:06;;;;;;;4.65;2.78;;;4.20;99.90;;;;;;7379027;19;20025;-59
2023/01/27 06:10:36;;;;;;;5.38;3.47;;;4.20;99.90;;;;;;7376209;19;20015;-59
2023/01/27 06:13:02;;;;;;;5.35;2.92;;;4.20;99.90;;;;;;7366604;19;20019;-64
2023/01/27 06:15:29;;;;;;;7.05;3.17;;;4.20;99.90;;;;;;7363888;19;20492;-64
2023/01/27 06:17:55;;;;;;;6.28;3.20;;;4.10;99.90;;;;;;7368586;19;20478;-59
2023/01/27 06:20:22;;;;;;;8.55;3.30;;;4.10;99.90;;;;;;7372837;19;20533;-64
2023/01/27 06:22:49;;;;;;;5.13;3.38;;;4.10;99.90;;;;;;7371734;19;20358;-59
2023/01/27 06:25:15;;;;;;;4.50;2.42;;;4.10;99.90;;;;;;7372716;19;20083;-64
2023/01/27 06:27:43;;;;;;;7.28;3.00;;;4.10;99.90;;;;;;7361153;19;20572;-64
2023/01/27 06:30:09;;;;;;;5.22;3.25;;;4.10;99.90;;;;;;7358549;19;20507;-66
2023/01/27 06:32:36;;;;;;;5.22;2.90;;;4.10;99.90;;;;;;7366439;19;20025;-64
2023/01/27 06:35:03;;;;;;;5.10;3.00;;;4.10;99.90;;;;;;7378548;19;20011;-59
2023/01/27 06:37:29;;;;;;;5.95;3.22;;;4.10;99.90;;;;;;7364358;19;20117;-64
2023/01/27 06:39:56;;;;;;;6.13;3.83;;;4.10;99.90;;;;;;7369635;19;20082;-64
2023/01/27 06:42:22;;;;;;;7.18;3.33;;;4.10;99.90;;;;;;7371424;19;20034;-64
2023/01/27 06:44:49;;;;;;;3.55;2.67;;;4.10;99.90;;;;;;7372237;19;20018;-64
2023/01/27 06:47:15;;;;;;;5.40;3.00;;;4.10;99.90;;;;;;7372333;19;20043;-64
2023/01/27 06:49:41;;;;;;;5.20;3.17;;;4.10;99.90;;;;;;7373142;19;20011;-64
2023/01/27 06:52:07;;;;;;;5.10;3.35;;;4.10;99.90;;;;;;7372187;19;20022;-64
2023/01/27 06:54:34;;;;;;;6.45;2.83;;;4.10;99.90;;;;;;7373177;19;20018;-64
2023/01/27 06:57:00;;;;;;;5.68;3.05;;;4.00;99.90;;;;;;7373443;19;20029;-64
2023/01/27 06:59:26;;;;;;;5.15;3.03;;;4.00;99.90;;;;;;7375113;19;20010;-59
2023/01/27 07:01:53;;;;;;;5.30;2.95;;;3.90;99.90;;;;;;7375902;19;20022;-64
2023/01/27 07:04:20;;;;;;;4.47;3.22;;;3.90;99.90;;;;;;7376513;19;20035;-59
2023/01/27 07:06:47;;;;;;;6.63;3.42;;;3.90;99.90;;;;;;7374846;19;20022;-65
2023/01/27 07:09:13;;;;;;;6.05;3.22;;;3.90;99.90;;;;;;7370908;19;20371;-59
2023/01/27 07:11:39;;;;;;;5.82;3.58;;;3.90;99.90;;;;;;7374298;19;20028;-64
2023/01/27 07:14:05;;;;;;;6.30;3.60;;;3.90;99.90;;;;;;7374071;19;20018;-64
2023/01/27 07:16:32;;;;;;;7.68;4.20;;;3.90;99.90;;;;;;7369717;19;20081;-64
2023/01/27 07:18:58;;;;;;;7.35;3.33;;;3.90;99.90;;;;;;7364332;19;20046;-64
2023/01/27 07:21:25;;;;;;;6.97;3.42;;;3.90;99.90;;;;;;7361384;19;20053;-64
2023/01/27 07:23:53;;;;;;;7.70;3.30;;;3.90;99.90;;;;;;7368874;19;20022;-60
2023/01/27 07:26:19;;;;;;;7.25;5.07;;;3.90;99.90;;;;;;7375945;19;20293;-59
2023/01/27 07:28:45;;;;;;;8.70;4.20;;;3.90;99.90;;;;;;7378941;19;20470;-63
2023/01/27 07:31:13;;;;;;;6.47;4.18;;;3.90;99.90;;;;;;7371772;19;20055;-59
2023/01/27 07:33:39;;;;;;;7.45;4.13;;;4.00;99.90;;;;;;7372455;19;20506;-64
2023/01/27 07:36:06;;;;;;;8.45;3.75;;;3.90;99.90;;;;;;7375862;19;20030;-59
2023/01/27 07:38:32;;;;;;;4.97;3.35;;;4.00;99.90;;;;;;7374394;19;20056;-65
2023/01/27 07:41:04;;;;;;;8.40;5.32;;;4.00;99.90;;;;;;7361691;19;20118;-65
2023/01/27 07:43:31;;;;;;;5.30;3.95;;;4.00;99.90;;;;;;7365233;19;20366;-60
2023/01/27 07:45:57;;;;;;;9.82;4.50;;;4.00;99.90;;;;;;7378116;19;20029;-60
2023/01/27 07:48:24;;;;;;;6.22;3.80;;;4.00;99.90;;;;;;7364801;19;20478;-65
2023/01/27 07:50:51;;;;;;;10.52;6.50;;;4.00;99.90;;;;;;7356389;19;20015;-65
2023/01/27 07:53:17;;;;;;;12.43;8.02;;;4.00;99.90;;;;;;7364917;19;20019;-60
2023/01/27 07:55:43;;;;;;;11.20;5.80;;;4.00;99.90;;;;;;7367465;19;20045;-65
2023/01/27 07:58:09;;;;;;;17.77;12.23;;;4.00;99.90;;;;;;7364554;19;20049;-65
2023/01/27 08:00:36;;;;;;;8.55;4.20;;;4.10;99.90;;;;;;7360174;19;20026;-65
2023/01/27 08:03:04;;;;;;;16.92;9.60;;;4.10;99.90;;;;;;7361093;19;20034;-65
2023/01/27 08:05:33;;;;;;;8.65;3.60;;;4.10;99.90;;;;;;7363806;19;20019;-65
2023/01/27 08:08:02;;;;;;;13.18;6.45;;;4.10;99.90;;;;;;7368777;19;20026;-60
2023/01/27 08:10:29;;;;;;;8.40;4.40;;;4.10;99.90;;;;;;7369344;19;20378;-60
2023/01/27 08:12:55;;;;;;;12.13;8.52;;;4.10;99.90;;;;;;7374772;19;20024;-65
2023/01/27 08:15:22;;;;;;;7.75;5.28;;;4.10;99.90;;;;;;7367586;19;20022;-60
2023/01/27 08:17:55;;;;;;;26.83;17.90;;;4.10;99.90;;;;;;7374849;19;20014;-64
2023/01/27 08:20:26;;;;;;;7.72;4.78;;;4.20;99.90;;;;;;7376350;19;20015;-60
2023/01/27 08:22:53;;;;;;;6.85;4.05;;;4.20;99.90;;;;;;7368137;19;20015;-67
2023/01/27 08:25:20;;;;;;;17.90;12.38;;;4.20;99.90;;;;;;7382310;19;20358;-60
2023/01/27 08:27:52;;;;;;;9.55;7.15;;;4.20;99.90;;;;;;7383143;19;20014;-60
2023/01/27 08:30:19;;;;;;;15.80;8.97;;;4.20;99.90;;;;;;7384538;19;20019;-60
2023/01/27 08:32:45;;;;;;;9.50;5.80;;;4.20;99.90;;;;;;7376956;19;20019;-65
2023/01/27 08:35:12;;;;;;;46.83;32.65;;;4.20;99.90;;;;;;7369332;19;20726;-65
2023/01/27 08:37:38;;;;;;;11.70;5.65;;;4.30;99.90;;;;;;7377519;19;20399;-64
2023/01/27 08:40:05;;;;;;;6.38;4.25;;;4.20;99.90;;;;;;7385620;19;20327;-59
2023/01/27 08:42:32;;;;;;;6.88;3.72;;;4.30;99.90;;;;;;7379893;19;20010;-60
2023/01/27 08:44:59;;;;;;;7.38;4.88;;;4.30;99.90;;;;;;7375803;19;20052;-60
2023/01/27 08:47:25;;;;;;;10.18;4.32;;;4.30;99.90;;;;;;7373733;19;20541;-60
2023/01/27 08:49:53;;;;;;;7.18;4.63;;;4.30;99.90;;;;;;7380761;19;20022;-59
2023/01/27 08:52:21;;;;;;;9.85;5.15;;;4.30;99.90;;;;;;7375353;19;20034;-59
2023/01/27 08:54:48;;;;;;;10.80;6.15;;;4.40;99.90;;;;;;7379453;19;20115;-59
2023/01/27 08:57:17;;;;;;;9.18;6.70;;;4.50;99.90;;;;;;7375424;19;20505;-59
2023/01/27 08:59:45;;;;;;;10.68;7.53;;;4.50;99.90;;;;;;7376468;19;20029;-59
2023/01/27 09:02:12;;;;;;;11.23;7.97;;;4.60;99.90;;;;;;7375228;19;20022;-59
2023/01/27 09:04:42;;;;;;;10.13;7.03;;;4.60;99.90;;;;;;7378302;19;20045;-59
2023/01/27 09:07:09;;;;;;;12.77;8.60;;;4.70;99.90;;;;;;7379665;19;20477;-59
2023/01/27 09:09:35;;;;;;;12.88;10.05;;;4.80;99.90;;;;;;7377032;19;20015;-59
2023/01/27 09:12:02;;;;;;;10.77;6.32;;;5.00;99.90;;;;;;7379387;19;20022;-60
2023/01/27 09:14:28;;;;;;;16.08;12.02;;;5.10;99.90;;;;;;7379434;19;20019;-59
2023/01/27 09:16:54;;;;;;;22.15;15.98;;;5.10;99.90;;;;;;7376976;19;20018;-60
2023/01/27 09:19:21;;;;;;;16.30;11.55;;;5.10;99.90;;;;;;7365911;19;20078;-64
2023/01/27 09:21:48;;;;;;;15.90;12.00;;;5.20;99.90;;;;;;7369743;19;20018;-58
2023/01/27 09:24:16;;;;;;;104.68;80.03;;;5.20;99.90;;;;;;7374404;19;20026;-58
2023/01/27 09:26:43;;;;;;;64.68;51.22;;;5.40;99.90;;;;;;7374334;19;20018;-60
2023/01/27 09:29:09;;;;;;;32.83;27.48;;;5.50;99.90;;;;;;7373215;19;20030;-59
2023/01/27 09:31:36;;;;;;;52.05;38.97;;;5.50;99.90;;;;;;7377671;19;20363;-62
2023/01/27 09:34:03;;;;;;;12.15;7.22;;;5.50;99.90;;;;;;7372371;19;20011;-61
2023/01/27 09:36:34;;;;;;;7.60;6.68;;;5.40;99.90;;;;;;7375267;19;20047;-61
2023/01/27 09:39:05;;;;;;;8.15;6.47;;;5.30;99.90;;;;;;7374403;19;20015;-61
2023/01/27 09:42:10;;;;;;;9.38;7.07;;;5.20;99.90;;;;;;7371732;19;20093;-60
2023/01/27 09:44:46;;;;;;;6.53;5.47;;;5.20;99.90;;;;;;7373663;19;20424;-60
2023/01/27 09:47:41;;;;;;;8.23;6.60;;;5.10;99.90;;;;;;7374974;19;20057;-60
2023/01/27 09:50:13;;;;;;;8.93;6.53;;;5.20;99.90;;;;;;7374078;19;20053;-61
2023/01/27 09:52:49;;;;;;;;;;;5.10;99.90;;;;;;7372191;19;20039;-60
2023/01/27 09:55:41;;;;;;;7.45;5.05;;;5.20;99.90;;;;;;7373405;19;19923;-60
2023/01/27 09:58:49;;;;;;;7.30;5.50;;;5.10;99.90;;;;;;7371357;19;20018;-60
2023/01/27 10:01:37;;;;;;;9.15;6.95;;;5.20;99.90;;;;;;7370862;19;20014;-60
2023/01/27 10:04:15;;;;;;;10.40;7.80;;;5.20;99.90;;;;;;7371305;19;20027;-60
2023/01/27 10:07:01;;;;;;;6.57;5.43;;;5.10;99.90;;;;;;7369689;19;20097;-61
2023/01/27 10:09:58;;;;;;;7.05;5.25;;;5.10;99.90;;;;;;7368773;19;20025;-60
2023/01/27 10:12:56;;;;;;;8.27;5.82;;;5.00;99.90;;;;;;7369648;19;20911;-60
2023/01/27 10:15:51;;;;;;;6.25;4.68;;;5.00;99.90;;;;;;7372273;19;20030;-61
2023/01/27 10:18:28;;;;;;;6.65;4.95;;;5.00;99.90;;;;;;7372654;19;20121;-61
2023/01/27 10:21:17;;;;;;;10.98;6.13;;;4.90;99.90;;;;;;7371959;19;20078;-61
2023/01/27 10:24:23;;;;;;;7.60;4.90;;;4.90;99.90;;;;;;7368989;19;20414;-61
2023/01/27 10:26:53;;;;;;;17.73;11.48;;;4.80;99.90;;;;;;7369905;19;20061;-61
2023/01/27 10:29:25;;;;;;;7.85;4.05;;;4.80;99.90;;;;;;7369449;19;20059;-61
2023/01/27 10:32:08;;;;;;;7.15;4.18;;;4.80;99.90;;;;;;7369781;19;20022;-61
2023/01/27 10:34:36;;;;;;;12.57;9.68;;;4.80;99.90;;;;;;7369341;19;20025;-61
2023/01/27 10:37:12;;;;;;;7.07;3.90;;;4.80;99.90;;;;;;7375329;19;20414;-60
2023/01/27 10:39:48;;;;;;;4.93;3.55;;;4.80;99.90;;;;;;7370019;19;20026;-61
2023/01/27 10:42:41;;;;;;;4.65;3.20;;;4.80;99.90;;;;;;7369421;19;20407;-61
2023/01/27 10:45:32;;;;;;;4.53;3.58;;;4.80;99.90;;;;;;7372461;19;20525;-61
2023/01/27 10:48:16;;;;;;;9.75;6.03;;;4.80;99.90;;;;;;7368889;19;20018;-60
2023/01/27 10:50:48;;;;;;;11.50;7.10;;;4.70;99.90;;;;;;7372680;19;20025;-61
2023/01/27 10:53:56;;;;;;;3.47;2.75;;;4.70;99.90;;;;;;7371799;19;20042;-61
2023/01/27 10:56:39;;;;;;;5.10;3.78;;;4.80;99.90;;;;;;7368626;19;20022;-65
2023/01/27 10:59:29;;;;;;;5.80;4.00;;;4.70;99.90;;;;;;7363517;19;20368;-65
2023/01/27 11:02:13;;;;;;;6.05;4.53;;;4.80;99.90;;;;;;7365023;19;20043;-60
2023/01/27 11:04:47;;;;;;;5.70;3.75;;;4.70;99.90;;;;;;7372308;19;20033;-61
2023/01/27 11:07:19;;;;;;;6.90;4.50;;;4.70;99.90;;;;;;7375518;19;20046;-60
2023/01/27 11:09:56;;;;;;;7.35;4.60;;;4.70;99.90;;;;;;7358863;19;20026;-65
2023/01/27 11:12:31;;;;;;;10.20;6.07;;;4.70;99.90;;;;;;7362701;19;20045;-65
2023/01/27 11:15:00;;;;;;;12.98;9.13;;;4.70;99.90;;;;;;7357585;19;20021;-65
2023/01/27 11:17:47;;;;;;;8.32;4.70;;;4.80;99.90;;;;;;7364751;19;20062;-65
2023/01/27 11:20:28;;;;;;;5.03;3.55;;;4.70;99.90;;;;;;7361467;19;20018;-64
2023/01/27 11:23:03;;;;;;;7.72;5.22;;;4.70;99.90;;;;;;7369875;19;20022;-61
2023/01/27 11:25:54;;;;;;;12.65;9.70;;;4.70;99.90;;;;;;7374124;19;20014;-61
2023/01/27 11:28:23;;;;;;;10.25;7.35;;;4.70;99.90;;;;;;7359678;19;20026;-65
2023/01/27 11:31:25;;;;;;;10.18;7.57;;;4.70;99.90;;;;;;7366424;19;20025;-61
2023/01/27 11:34:37;;;;;;;7.18;4.20;;;4.70;99.90;;;;;;7369369;19;20836;-61
2023/01/27 11:37:29;;;;;;;8.50;6.97;;;4.80;99.90;;;;;;7371338;19;20015;-61
2023/01/27 11:39:55;;;;;;;7.43;3.25;;;4.80;99.90;;;;;;7366229;19;20517;-64
2023/01/27 11:42:27;;;;;;;5.07;3.85;;;4.80;99.90;;;;;;7361225;19;20501;-63
2023/01/27 11:44:55;;;;;;;6.18;4.28;;;4.80;99.90;;;;;;7361429;19;20359;-65
2023/01/27 11:47:36;;;;;;;6.25;3.80;;;4.80;99.90;;;;;;7364966;19;20373;-65
2023/01/27 11:50:03;;;;;;;4.28;2.70;;;4.80;99.90;;;;;;7365205;19;20122;-61
2023/01/27 11:52:31;;;;;;;6.60;2.72;;;4.80;99.90;;;;;;7371389;19;20022;-61
2023/01/27 11:55:08;;;;;;;6.45;4.43;;;4.90;99.90;;;;;;7370963;19;20359;-61
2023/01/27 11:57:36;;;;;;;5.90;4.05;;;4.90;99.90;;;;;;7363322;19;20906;-65
2023/01/27 12:00:09;;;;;;;3.55;2.60;;;4.90;99.90;;;;;;7359804;19;20022;-64
2023/01/27 12:02:40;;;;;;;4.38;2.53;;;4.90;99.90;;;;;;7360391;19;20466;-64
2023/01/27 12:05:20;;;;;;;5.70;4.00;;;4.90;99.90;;;;;;7370185;19;20066;-60
2023/01/27 12:08:00;;;;;;;3.90;2.70;;;4.90;99.90;;;;;;7370450;19;20023;-61
2023/01/27 12:10:29;;;;;;;4.95;3.53;;;4.90;99.90;;;;;;7360671;19;20086;-65
2023/01/27 12:12:57;;;;;;;5.22;2.63;;;5.00;99.90;;;;;;7359780;19;20021;-61
2023/01/27 12:15:27;;;;;;;4.95;3.58;;;5.00;99.90;;;;;;7368870;19;20371;-61
2023/01/27 12:17:58;;;;;;;4.90;2.53;;;5.00;99.90;;;;;;7371299;19;20446;-61
2023/01/27 12:20:36;;;;;;;4.07;2.60;;;5.00;99.90;;;;;;7369546;19;20098;-60
2023/01/27 12:23:50;;;;;;;5.53;2.90;;;5.00;99.90;;;;;;7368076;19;20023;-61
2023/01/27 12:26:38;;;;;;;3.58;2.42;;;5.00;99.90;;;;;;7372455;19;20043;-60
2023/01/27 12:29:12;;;;;;;3.92;2.92;;;5.00;99.90;;;;;;7369394;19;20029;-63
2023/01/27 12:31:49;;;;;;;4.05;3.25;;;5.10;99.90;;;;;;7356868;19;20465;-64
2023/01/27 12:34:27;;;;;;;3.42;2.20;;;5.00;99.90;;;;;;7357714;19;20022;-64
2023/01/27 12:36:56;;;;;;;3.90;2.65;;;5.00;99.90;;;;;;7357621;19;20396;-64
2023/01/27 12:39:40;;;;;;;4.90;3.25;;;5.10;99.90;;;;;;7359505;19;20493;-63
2023/01/27 12:42:37;;;;;;;4.68;3.05;;;5.00;99.90;;;;;;7359606;19;20026;-64
2023/01/27 12:45:17;;;;;;;2.45;2.13;;;5.00;99.90;;;;;;7356667;19;20030;-64
2023/01/27 12:48:09;;;;;;;4.32;2.75;;;5.00;99.90;;;;;;7359811;19;20023;-64
2023/01/27 12:50:37;;;;;;;4.82;2.97;;;5.00;99.90;;;;;;7359404;19;20014;-64
2023/01/27 12:53:09;;;;;;;4.07;2.70;;;5.00;99.90;;;;;;7360204;19;20019;-65
2023/01/27 12:55:57;;;;;;;3.95;2.97;;;5.00;99.90;;;;;;7358246;19;20023;-63
2023/01/27 12:58:32;;;;;;;6.57;4.47;;;5.00;99.90;;;;;;7359615;19;20020;-64
2023/01/27 13:01:22;;;;;;;3.72;2.55;;;5.00;99.90;;;;;;7359443;19;20522;-63
2023/01/27 13:03:52;;;;;;;3.08;2.35;;;5.00;99.90;;;;;;7362916;19;20042;-64
2023/01/27 13:06:23;;;;;;;2.03;1.70;;;5.00;99.90;;;;;;7366957;19;20037;-64
2023/01/27 13:08:51;;;;;;;3.08;2.08;;;5.00;99.90;;;;;;7366441;19;20019;-64
2023/01/27 13:11:28;;;;;;;3.50;2.65;;;5.00;99.90;;;;;;7363341;19;20560;-64
2023/01/27 13:13:57;;;;;;;6.47;3.53;;;5.00;99.90;;;;;;7371729;19;20492;-64
2023/01/27 13:16:28;;;;;;;3.65;2.30;;;5.00;99.90;;;;;;7368199;19;20023;-64
2023/01/27 13:18:59;;;;;;;4.07;2.75;;;5.00;99.90;;;;;;7370141;19;20022;-64
2023/01/27 13:21:35;;;;;;;3.50;2.80;;;5.00;99.90;;;;;;7362118;19;20102;-64
2023/01/27 13:24:05;;;;;;;3.38;2.65;;;5.00;99.90;;;;;;7370184;19;20015;-64
2023/01/27 13:26:33;;;;;;;3.88;2.70;;;4.90;99.90;;;;;;7365753;19;21618;-64
2023/01/27 13:29:10;;;;;;;3.35;2.53;;;4.90;99.90;;;;;;7368024;19;20469;-64
2023/01/27 13:31:52;;;;;;;4.18;2.42;;;4.90;99.90;;;;;;7366597;19;20078;-64
2023/01/27 13:34:38;;;;;;;3.60;2.50;;;4.90;99.90;;;;;;7363814;19;20098;-64
2023/01/27 13:37:16;;;;;;;3.05;2.25;;;4.90;99.90;;;;;;7365883;19;20438;-64
2023/01/27 13:39:52;;;;;;;3.28;2.60;;;4.90;99.90;;;;;;7366414;19;20046;-65
2023/01/27 13:42:22;;;;;;;3.85;2.95;;;4.90;99.90;;;;;;7363806;19;20595;-64